Time;durP1;ratioP1;P1;durP2;ratioP2;P2;SDS_P1;SDS_P2;PMS_P1;PMS_P2;Temp;Humidity;BMP_temperature;BMP_pressure;BME280_temperature;BME280_humidity;BME280_pressure;Samples;Min_cycle;Max_cycle;Signal;HPM_P1;HPM_P2
2022/04/26 03:37:05;;;;;;;18.77;6.30;;;;;;;15.74;89.85;99027.00;5026421;28;20796;-54
2022/04/26 03:39:32;;;;;;;19.97;6.37;;;;;;;15.76;90.44;99033.84;5026518;28;20710;-53
2022/04/26 03:41:59;;;;;;;23.90;6.80;;;;;;;15.74;92.21;99033.06;5031252;28;20213;-54
2022/04/26 03:44:26;;;;;;;23.57;7.10;;;;;;;15.66;93.09;99040.53;5034600;28;20220;-54
2022/04/26 03:46:53;;;;;;;27.73;7.07;;;;;;;15.63;93.85;99037.22;5037987;28;20220;-54
2022/04/26 03:49:22;;;;;;;16.17;6.37;;;;;;;15.44;94.73;99043.47;5034626;28;20218;-53
2022/04/26 03:51:48;;;;;;;35.20;8.17;;;;;;;15.38;95.83;99035.13;5034297;28;20232;-54
2022/04/26 03:54:15;;;;;;;20.40;6.60;;;;;;;15.36;96.12;99043.03;5040428;27;20612;-54
2022/04/26 03:56:42;;;;;;;22.63;6.87;;;;;;;15.26;96.68;99027.03;5038511;27;20221;-55
2022/04/26 03:59:09;;;;;;;20.43;6.97;;;;;;;15.55;94.87;99050.75;5038776;27;20225;-55
2022/04/26 04:01:36;;;;;;;19.23;6.77;;;;;;;15.69;93.66;99055.22;5038256;28;20727;-55
2022/04/26 04:04:03;;;;;;;31.13;6.87;;;;;;;15.77;92.49;99045.16;5038428;28;20303;-54
2022/04/26 04:06:31;;;;;;;22.57;6.77;;;;;;;16.12;91.02;99056.19;5036843;27;20224;-54
2022/04/26 04:08:58;;;;;;;20.63;6.77;;;;;;;16.54;87.75;99060.66;5037661;27;20270;-54
2022/04/26 04:11:26;;;;;;;18.93;7.13;;;;;;;16.53;85.51;99048.47;5038970;28;20225;-53
2022/04/26 04:13:52;;;;;;;19.90;6.67;;;;;;;16.69;84.00;99078.09;5036359;27;20221;-54
2022/04/26 04:16:19;;;;;;;17.10;6.50;;;;;;;16.76;82.73;99074.16;5038353;28;20227;-54
2022/04/26 04:21:32;;;;;;;15.87;6.20;;;;;;;16.61;77.95;99068.03;5041143;28;20227;-56
2022/04/26 04:23:59;;;;;;;14.03;5.10;;;;;;;17.31;73.03;99086.47;5047451;28;20200;-58
2022/04/26 04:26:26;;;;;;;11.87;4.93;;;;;;;18.36;66.07;99079.59;5041460;28;20231;-57
2022/04/26 04:28:53;;;;;;;14.33;4.77;;;;;;;19.36;59.84;99087.53;5028673;28;20198;-57
2022/04/26 04:31:20;;;;;;;13.68;4.75;;;;;;;19.76;57.81;99085.50;5047149;28;20204;-57
2022/04/26 04:33:47;;;;;;;18.48;5.60;;;;;;;20.66;54.61;99083.06;5049142;28;20227;-56
2022/04/26 04:36:14;;;;;;;14.00;4.30;;;;;;;21.48;51.39;99083.66;5032489;28;20200;-57
2022/04/26 04:38:43;;;;;;;14.57;4.95;;;;;;;22.34;49.18;99091.56;5027866;28;20265;-57
2022/04/26 04:41:10;;;;;;;12.52;4.88;;;;;;;23.63;45.65;99092.72;5028053;28;20225;-57
2022/04/26 04:43:37;;;;;;;14.23;4.72;;;;;;;24.83;42.08;99094.06;5029604;28;20300;-57
2022/04/26 04:46:04;;;;;;;11.50;4.63;;;;;;;25.59;40.36;99103.53;5028998;28;20216;-57
2022/04/26 04:48:31;;;;;;;20.23;4.55;;;;;;;26.70;37.76;99105.72;5029181;28;20258;-58
2022/04/26 04:50:58;;;;;;;11.88;4.65;;;;;;;27.63;35.28;99104.06;5028828;28;20674;-58
2022/04/26 04:53:25;;;;;;;8.20;3.83;;;;;;;27.61;35.46;99105.22;5029105;28;20221;-58
2022/04/26 04:55:53;;;;;;;4.18;3.67;;;;;;;27.72;34.89;99097.75;5028951;28;20231;-57
2022/04/26 04:58:20;;;;;;;10.52;3.63;;;;;;;28.09;34.28;99109.81;5029327;28;20678;-58
2022/04/26 05:00:47;;;;;;;6.93;3.55;;;;;;;27.90;34.16;99110.09;5029174;28;20585;-57
2022/04/26 05:03:13;;;;;;;14.50;3.58;;;;;;;27.36;34.52;99113.09;5029104;28;20221;-58
2022/04/26 05:05:40;;;;;;;10.63;4.65;;;;;;;27.79;34.03;99121.91;5029055;28;20198;-59
2022/04/26 05:08:10;;;;;;;8.90;4.35;;;;;;;27.86;33.34;99130.13;5034776;28;20203;-58
2022/04/26 05:10:37;;;;;;;15.10;4.32;;;;;;;27.44;34.31;99130.94;5043896;28;20274;-58
2022/04/26 05:13:06;;;;;;;21.85;4.43;;;;;;;27.37;34.05;99127.25;5029054;28;20225;-58
2022/04/26 05:15:35;;;;;;;17.40;4.05;;;;;;;28.18;33.32;99141.69;5029109;28;20205;-58
2022/04/26 05:18:02;;;;;;;11.05;4.38;;;;;;;28.32;32.83;99136.72;5029038;28;20193;-55
2022/04/26 05:20:29;;;;;;;6.30;3.60;;;;;;;27.19;33.55;99116.69;5028961;28;20197;-56
2022/04/26 05:25:40;;;;;;;11.18;4.15;;;;;;;28.58;31.97;99145.38;5028660;28;20228;-59
2022/04/26 05:28:08;;;;;;;5.70;3.88;;;;;;;28.36;31.68;99144.19;5029067;28;20230;-59
2022/04/26 05:30:35;;;;;;;7.53;3.40;;;;;;;27.29;32.95;99145.88;5028984;28;20624;-58
2022/04/26 05:33:02;;;;;;;10.88;3.63;;;;;;;27.83;32.23;99141.94;5028652;28;20601;-58
2022/04/26 05:35:29;;;;;;;14.93;4.10;;;;;;;29.01;31.34;99143.34;5028585;28;20201;-58
2022/04/26 05:37:56;;;;;;;10.10;4.13;;;;;;;30.35;29.03;99150.25;5028475;28;20212;-58
2022/04/26 05:40:23;;;;;;;11.13;3.95;;;;;;;30.68;28.37;99149.00;5028556;28;20209;-58
2022/04/26 05:42:50;;;;;;;7.15;3.63;;;;;;;31.39;27.53;99154.78;5028324;28;20197;-59
2022/04/26 05:45:18;;;;;;;5.60;3.55;;;;;;;31.57;27.43;99144.53;5037900;28;20288;-59
2022/04/26 05:47:46;;;;;;;14.57;4.00;;;;;;;32.05;27.11;99145.72;5048120;28;20213;-57
2022/04/26 05:50:14;;;;;;;15.57;4.43;;;;;;;32.62;26.74;99149.38;5048526;28;20269;-56
2022/04/26 05:52:41;;;;;;;8.68;4.07;;;;;;;33.12;25.64;99141.06;5048111;28;20227;-56
2022/04/26 05:55:09;;;;;;;7.88;3.53;;;;;;;33.39;25.68;99152.84;5038553;28;20213;-56
2022/04/26 05:57:38;;;;;;;10.02;3.78;;;;;;;34.19;25.16;99151.28;5028328;28;20197;-56
2022/04/26 06:00:08;;;;;;;11.38;3.90;;;;;;;33.23;25.37;99147.78;5028684;28;20258;-56
2022/04/26 06:02:36;;;;;;;13.00;3.65;;;;;;;32.98;25.35;99143.88;5028159;28;20583;-56
2022/04/26 06:05:04;;;;;;;15.25;4.32;;;;;;;33.32;25.39;99143.06;5027994;28;20206;-58
2022/04/26 06:07:31;;;;;;;10.30;3.92;;;;;;;33.45;25.52;99143.13;5028270;28;20674;-58
2022/04/26 06:09:59;;;;;;;9.88;4.25;;;;;;;34.01;24.91;99148.34;5028066;28;20205;-55
2022/04/26 06:12:26;;;;;;;9.35;3.90;;;;;;;34.56;24.76;99141.78;5028068;28;20200;-55
2022/04/26 06:14:54;;;;;;;15.18;4.53;;;;;;;33.67;25.73;99143.84;5027000;28;20717;-55
2022/04/26 06:17:21;;;;;;;15.85;4.40;;;;;;;33.32;25.87;99148.44;5028141;28;20653;-56
2022/04/26 06:19:50;;;;;;;9.80;3.88;;;;;;;32.63;26.46;99142.97;5027821;28;20201;-55
2022/04/26 06:22:17;;;;;;;12.40;3.97;;;;;;;32.85;27.00;99149.97;5027944;28;20307;-56
2022/04/26 06:24:43;;;;;;;9.95;4.53;;;;;;;33.21;26.25;99146.28;5027801;28;20229;-55
2022/04/26 06:27:11;;;;;;;9.55;4.30;;;;;;;32.43;26.61;99143.63;5027827;28;20207;-55
2022/04/26 06:29:38;;;;;;;11.88;4.07;;;;;;;31.63;27.84;99146.47;5027690;28;20937;-56
2022/04/26 06:32:05;;;;;;;9.43;3.88;;;;;;;31.62;27.99;99142.09;5027831;28;20201;-55
2022/04/26 06:34:32;;;;;;;15.32;3.67;;;;;;;31.32;27.99;99129.75;5027545;28;20235;-55
2022/04/26 06:37:01;;;;;;;9.38;3.05;;;;;;;31.96;27.42;99132.59;5027574;28;20193;-56
2022/04/26 06:39:28;;;;;;;13.60;4.22;;;;;;;32.61;26.63;99136.97;5027625;28;20689;-56
2022/04/26 06:41:55;;;;;;;15.02;3.85;;;;;;;33.09;26.26;99136.09;5027353;28;20193;-55
2022/04/26 06:44:22;;;;;;;11.98;3.72;;;;;;;33.43;25.74;99135.25;5027543;28;20194;-55
2022/04/26 06:46:49;;;;;;;7.60;3.13;;;;;;;33.82;24.72;99141.88;5027502;28;20193;-55
2022/04/26 06:49:16;;;;;;;13.23;3.45;;;;;;;33.85;24.84;99145.00;5027768;28;20193;-57
2022/04/26 06:51:44;;;;;;;9.68;3.33;;;;;;;33.84;24.64;99145.19;5027590;28;20203;-56
2022/04/26 06:54:12;;;;;;;6.28;2.92;;;;;;;33.95;24.21;99138.38;5027391;28;20331;-55
2022/04/26 06:56:41;;;;;;;8.98;3.20;;;;;;;33.79;24.29;99135.03;5027356;28;20193;-56
2022/04/26 06:59:08;;;;;;;5.10;3.53;;;;;;;33.44;25.18;99128.03;5027525;28;20220;-56
2022/04/26 07:01:35;;;;;;;11.82;3.25;;;;;;;34.40;24.52;99126.06;5027304;28;20204;-56
2022/04/26 07:04:02;;;;;;;12.63;3.53;;;;;;;34.85;23.79;99125.22;5027298;28;20194;-58
2022/04/26 07:06:29;;;;;;;8.02;3.53;;;;;;;34.76;23.46;99137.28;5027255;28;20198;-58
2022/04/26 07:08:56;;;;;;;6.93;3.33;;;;;;;33.77;24.65;99130.88;5027171;28;20583;-56
2022/04/26 07:11:24;;;;;;;12.93;3.38;;;;;;;33.94;24.39;99125.97;5027313;28;20215;-55
2022/04/26 07:13:52;;;;;;;7.38;3.28;;;;;;;33.50;25.01;99132.63;5027031;28;20225;-55
2022/04/26 07:16:19;;;;;;;9.02;3.88;;;;;;;33.36;24.43;99128.19;5027318;28;20589;-55
2022/04/26 07:18:46;;;;;;;15.90;3.30;;;;;;;33.78;24.98;99133.34;5027241;28;20216;-56
2022/04/26 07:21:13;;;;;;;12.40;3.63;;;;;;;33.91;26.03;99127.19;5027416;28;20213;-55
2022/04/26 07:23:40;;;;;;;12.88;3.15;;;;;;;34.47;23.90;99135.78;5027094;28;20204;-57
2022/04/26 07:26:07;;;;;;;10.93;3.50;;;;;;;34.91;24.79;99131.63;5026870;28;20235;-57
2022/04/26 07:28:35;;;;;;;9.88;3.55;;;;;;;34.71;24.16;99136.19;5030791;28;20652;-57
2022/04/26 07:31:04;;;;;;;5.78;3.03;;;;;;;34.75;24.15;99134.75;5030579;28;20198;-57
2022/04/26 07:36:15;;;;;;;6.00;2.65;;;;;;;34.67;25.48;99138.47;5030669;28;20685;-58
2022/04/26 07:38:42;;;;;;;12.50;3.25;;;;;;;34.47;23.47;99143.88;5030668;28;20228;-57
2022/04/26 07:41:11;;;;;;;8.63;3.20;;;;;;;34.72;23.72;99127.06;5030270;28;20208;-57
2022/04/26 07:43:39;;;;;;;7.93;2.88;;;;;;;34.79;23.83;99136.00;5030493;28;20276;-58
2022/04/26 07:46:06;;;;;;;8.93;3.25;;;;;;;34.64;23.94;99132.69;5030262;28;20596;-57
2022/04/26 07:48:34;;;;;;;11.35;3.30;;;;;;;35.12;23.15;99131.38;5030247;28;20206;-57
2022/04/26 07:51:03;;;;;;;14.02;3.30;;;;;;;35.44;23.42;99128.84;5030176;28;20204;-58
2022/04/26 07:53:30;;;;;;;20.50;3.67;;;;;;;35.57;23.79;99128.78;5030039;28;20294;-57
2022/04/26 07:55:57;;;;;;;27.83;3.78;;;;;;;35.21;23.55;99135.53;5029935;28;20201;-54
2022/04/26 07:58:24;;;;;;;17.52;4.50;;;;;;;33.89;24.34;99129.25;5030269;28;20219;-54
2022/04/26 08:00:52;;;;;;;14.75;3.85;;;;;;;33.55;25.10;99140.91;5030001;28;20212;-56
2022/04/26 08:03:20;;;;;;;16.52;3.60;;;;;;;33.50;25.21;99125.38;5030025;28;20675;-54
2022/04/26 08:05:48;;;;;;;16.48;3.60;;;;;;;33.69;25.62;99131.84;5030425;28;20233;-55
2022/04/26 08:08:14;;;;;;;6.80;3.08;;;;;;;33.68;25.25;99135.56;5030374;28;20252;-55
2022/04/26 08:10:41;;;;;;;17.13;3.60;;;;;;;33.41;25.53;99115.00;5030223;28;20566;-55
2022/04/26 08:13:09;;;;;;;10.43;3.30;;;;;;;33.65;26.01;99129.75;5029885;28;20229;-55
2022/04/26 08:15:36;;;;;;;17.33;3.97;;;;;;;32.54;26.98;99119.94;5029942;28;20202;-55
2022/04/26 08:18:05;;;;;;;11.95;4.18;;;;;;;32.96;27.54;99119.84;5029589;28;20841;-56
2022/04/26 08:20:32;;;;;;;8.88;4.40;;;;;;;33.01;26.83;99119.28;5029966;28;20598;-55
2022/04/26 08:23:00;;;;;;;10.40;4.50;;;;;;;32.24;27.50;99124.66;5029796;28;20606;-55
2022/04/26 08:28:11;;;;;;;10.63;4.32;;;;;;;32.38;28.35;99115.69;5029558;28;20200;-54
2022/04/26 08:30:39;;;;;;;10.70;4.32;;;;;;;32.43;28.92;99122.13;5029631;28;20670;-54
2022/04/26 08:33:07;;;;;;;14.40;4.68;;;;;;;32.32;28.97;99111.91;5029557;28;20197;-55
2022/04/26 08:35:34;;;;;;;13.02;5.18;;;;;;;31.70;29.74;99092.91;5029667;28;20690;-55
2022/04/26 08:38:01;;;;;;;10.18;4.35;;;;;;;31.47;30.75;99106.44;5028946;28;20198;-55
2022/04/26 08:40:28;;;;;;;9.02;4.32;;;;;;;31.54;30.20;99115.38;5029931;28;20557;-55
2022/04/26 08:42:55;;;;;;;10.18;3.90;;;;;;;31.77;29.96;99109.06;5029237;28;20200;-55
2022/04/26 08:45:22;;;;;;;13.57;4.20;;;;;;;31.28;29.96;99106.97;5030482;28;20313;-55
2022/04/26 08:53:22;;;;;;;9.50;3.25;;;;;;;30.18;31.48;99104.03;5028980;28;20608;-57
2022/04/26 08:55:52;;;;;;;9.40;3.25;;;;;;;29.73;31.96;99093.25;5027906;28;20225;-57
2022/04/26 08:58:19;;;;;;;6.63;3.03;;;;;;;29.86;30.67;99098.88;5028493;28;20227;-55
2022/04/26 09:01:05;;;;;;;8.10;3.22;;;;;;;29.91;30.87;99086.59;5028653;28;20659;-56
2022/04/26 09:03:32;;;;;;;9.57;2.65;;;;;;;30.16;29.37;99094.50;5028610;28;20221;-56
2022/04/26 09:06:08;;;;;;;4.57;2.72;;;;;;;30.48;29.24;99093.38;5028193;28;20304;-56
2022/04/26 09:08:36;;;;;;;3.22;2.15;;;;;;;30.07;28.21;99082.19;5028298;28;20217;-57
2022/04/26 09:11:04;;;;;;;5.40;1.90;;;;;;;29.58;28.80;99091.34;5050631;28;20230;-57
2022/04/26 09:13:41;;;;;;;4.78;2.25;;;;;;;29.12;28.71;99087.66;5052903;27;20228;-57
2022/04/26 09:16:17;;;;;;;3.80;2.42;;;;;;;28.94;29.32;99078.22;5048635;28;20761;-55
2022/04/26 09:18:52;;;;;;;5.90;1.67;;;;;;;28.35;29.21;99080.28;5048761;28;20201;-56
2022/04/26 09:21:21;;;;;;;8.15;1.92;;;;;;;28.55;29.58;99068.28;5048690;28;20196;-57
2022/04/26 09:23:48;;;;;;;6.93;2.05;;;;;;;28.69;29.44;99082.75;5048695;28;20283;-58
2022/04/26 09:26:17;;;;;;;13.32;2.55;;;;;;;28.59;29.50;99080.28;5048452;28;20355;-57
2022/04/26 09:28:46;;;;;;;5.72;2.03;;;;;;;28.37;29.83;99072.97;5048868;28;20619;-57
2022/04/26 09:31:21;;;;;;;4.95;1.95;;;;;;;28.80;29.99;99059.22;5045604;28;20200;-56
2022/04/26 09:33:51;;;;;;;7.22;2.90;;;;;;;29.39;29.20;99032.94;5039024;28;20232;-56
2022/04/26 09:36:19;;;;;;;4.35;2.22;;;;;;;30.08;27.68;99068.63;5048499;28;20200;-57
2022/04/26 09:38:52;;;;;;;4.78;1.80;;;;;;;30.65;26.42;99074.34;5048255;28;20195;-57
2022/04/26 09:41:20;;;;;;;6.80;2.42;;;;;;;30.58;26.49;99075.25;5048189;28;20234;-58
2022/04/26 09:43:57;;;;;;;6.75;2.00;;;;;;;31.24;25.71;99066.31;5048598;28;20196;-57
2022/04/26 09:46:24;;;;;;;5.70;1.70;;;;;;;31.15;25.32;99066.63;5048433;28;20197;-57
2022/04/26 09:48:54;;;;;;;3.75;2.05;;;;;;;30.73;25.93;99065.38;5047494;28;20201;-57
2022/04/26 09:51:21;;;;;;;4.75;1.88;;;;;;;31.21;25.65;99061.31;5047907;28;20204;-57
2022/04/26 09:53:48;;;;;;;2.17;1.77;;;;;;;32.06;24.62;99061.44;5047989;28;20239;-58
2022/04/26 09:56:21;;;;;;;7.20;2.08;;;;;;;31.56;25.60;99054.31;5047986;28;20197;-57
2022/04/26 09:58:49;;;;;;;2.28;1.75;;;;;;;31.23;26.13;99058.47;5048170;28;20196;-57
2022/04/26 10:01:17;;;;;;;6.32;2.28;;;;;;;31.63;25.76;99057.91;5048321;28;20197;-57
2022/04/26 10:03:49;;;;;;;5.15;2.08;;;;;;;32.02;25.53;99045.94;5048024;28;20188;-58
2022/04/26 10:06:17;;;;;;;4.00;1.77;;;;;;;32.30;25.31;99051.34;5048010;28;20196;-58
2022/04/26 10:08:45;;;;;;;2.88;1.83;;;;;;;32.55;25.14;99051.75;5048096;28;20595;-57
2022/04/26 10:11:12;;;;;;;5.93;2.00;;;;;;;32.58;25.02;99054.06;5048132;28;20677;-57
2022/04/26 10:13:43;;;;;;;3.28;2.17;;;;;;;31.93;25.29;99052.47;5047723;28;20226;-57
2022/04/26 10:16:11;;;;;;;7.00;2.20;;;;;;;31.11;25.84;99019.75;5047884;28;20200;-57
2022/04/26 10:18:43;;;;;;;3.67;2.13;;;;;;;30.24;26.69;99046.25;5048349;28;20197;-57
2022/04/26 10:21:11;;;;;;;4.18;1.88;;;;;;;29.17;27.52;99047.06;5047746;28;20203;-56
2022/04/26 10:24:15;;;;;;;6.78;1.98;;;;;;;28.59;28.74;99036.72;5047760;28;20291;-57
2022/04/26 10:26:43;;;;;;;6.07;2.03;;;;;;;27.88;30.41;99022.22;5050735;28;20683;-56
2022/04/26 10:29:20;;;;;;;5.72;1.98;;;;;;;27.54;31.05;99030.31;5047418;28;20250;-56
2022/04/26 10:31:49;;;;;;;4.45;1.90;;;;;;;27.16;30.89;99010.44;5047598;28;20196;-56
2022/04/26 10:34:29;;;;;;;5.82;1.77;;;;;;;26.75;31.23;99004.88;5047663;28;20224;-56
2022/04/26 10:36:59;;;;;;;4.90;1.58;;;;;;;26.76;32.51;99035.84;5047428;28;20197;-56
2022/04/26 10:39:31;;;;;;;5.32;1.80;;;;;;;26.62;31.12;99036.47;5047460;28;20200;-56
2022/04/26 10:41:59;;;;;;;3.60;1.85;;;;;;;26.45;31.57;99018.72;5047375;28;20626;-55
2022/04/26 10:44:31;;;;;;;4.65;1.80;;;;;;;26.68;31.70;99042.97;5047392;28;20189;-56
2022/04/26 10:47:35;;;;;;;4.13;1.85;;;;;;;26.71;31.64;99042.66;5047676;28;20507;-56
2022/04/26 10:50:03;;;;;;;2.97;1.80;;;;;;;26.59;31.19;99052.75;5047271;28;20196;-55
2022/04/26 10:52:42;;;;;;;5.18;1.80;;;;;;;26.60;30.84;99041.09;5047503;28;20200;-57
2022/04/26 10:55:14;;;;;;;2.92;1.73;;;;;;;26.72;31.19;99050.50;5047174;28;20323;-56
2022/04/26 10:57:43;;;;;;;4.53;1.70;;;;;;;26.77;30.67;99050.00;5047432;28;20193;-57
2022/04/26 11:00:14;;;;;;;8.32;2.03;;;;;;;26.56;31.62;99033.56;5046844;28;20287;-56
2022/04/26 11:02:43;;;;;;;3.42;1.35;;;;;;;26.74;32.13;99026.38;5047121;28;20212;-56
2022/04/26 11:05:12;;;;;;;5.40;1.83;;;;;;;26.74;32.01;99029.88;5047253;28;20192;-57
2022/04/26 11:07:41;;;;;;;8.25;2.33;;;;;;;26.66;32.74;99015.66;5047235;28;20235;-57
2022/04/26 11:10:09;;;;;;;3.65;1.90;;;;;;;26.53;32.83;99013.44;5047098;28;20200;-57
2022/04/26 11:12:38;;;;;;;6.07;2.40;;;;;;;26.32;33.24;99015.63;5047082;28;20192;-58
2022/04/26 11:15:07;;;;;;;5.25;2.10;;;;;;;26.11;33.99;99017.78;5046657;28;20220;-57
2022/04/26 11:17:36;;;;;;;7.10;1.90;;;;;;;26.12;33.87;99016.78;5047146;28;20197;-56
2022/04/26 11:20:06;;;;;;;4.57;2.28;;;;;;;25.87;34.16;99011.25;5047138;28;20201;-58
2022/04/26 11:22:33;;;;;;;4.00;2.00;;;;;;;25.89;33.13;99014.63;5047040;28;20211;-57
2022/04/26 11:28:06;;;;;;;6.25;1.80;;;;;;;26.17;33.08;99017.16;5047020;28;20200;-58
2022/04/26 11:30:36;;;;;;;6.63;1.70;;;;;;;26.06;33.39;98994.31;5046872;28;20204;-58
2022/04/26 11:33:06;;;;;;;4.10;1.95;;;;;;;26.22;33.55;99012.19;5046946;28;20726;-58
2022/04/26 11:35:34;;;;;;;7.40;1.92;;;;;;;26.30;33.29;99014.94;5046739;28;20228;-57
2022/04/26 11:38:05;;;;;;;6.25;1.90;;;;;;;26.14;34.02;99010.31;5046510;28;20196;-57
2022/04/26 11:40:34;;;;;;;3.30;1.70;;;;;;;26.06;34.32;98998.81;5046868;28;20207;-57
2022/04/26 11:43:08;;;;;;;6.72;2.08;;;;;;;26.04;34.88;98981.16;5046843;28;20192;-58
2022/04/26 11:45:36;;;;;;;5.22;2.13;;;;;;;25.99;35.55;98996.75;5046914;28;20674;-57
2022/04/26 11:48:09;;;;;;;5.25;1.92;;;;;;;25.87;36.18;98995.31;5046810;28;20288;-56
2022/04/26 11:50:37;;;;;;;6.05;2.03;;;;;;;25.66;36.62;98997.47;5046610;28;20197;-58
2022/04/26 11:53:06;;;;;;;6.70;2.47;;;;;;;25.67;36.69;98983.19;5046834;28;20746;-58
2022/04/26 11:55:34;;;;;;;7.53;2.05;;;;;;;25.44;36.71;98989.91;5046744;28;20235;-58
2022/04/26 11:58:16;;;;;;;12.02;2.53;;;;;;;25.47;37.00;98997.59;5046409;28;20201;-58
2022/04/26 12:00:57;;;;;;;6.72;2.13;;;;;;;25.20;37.17;98996.63;5046596;28;20193;-57
2022/04/26 12:03:27;;;;;;;4.40;1.85;;;;;;;25.19;37.49;98991.47;5046448;28;20207;-58
2022/04/26 12:05:57;;;;;;;8.38;2.38;;;;;;;25.14;37.68;98975.16;5046399;28;20228;-58
2022/04/26 12:08:25;;;;;;;6.03;2.85;;;;;;;25.41;36.94;98992.84;5046470;28;20588;-58
2022/04/26 12:10:52;;;;;;;3.10;1.90;;;;;;;25.55;36.73;98993.19;5046267;28;20291;-58
2022/04/26 12:13:33;;;;;;;6.90;2.03;;;;;;;25.67;35.77;98983.19;5047892;28;20203;-58
2022/04/26 12:16:22;;;;;;;7.05;1.75;;;;;;;25.62;36.69;98959.72;5046392;28;20757;-59
2022/04/26 12:18:52;;;;;;;9.73;2.35;;;;;;;25.71;37.25;98970.44;5027673;28;20212;-55
2022/04/26 12:21:19;;;;;;;4.78;2.20;;;;;;;25.57;36.93;98972.59;5029912;28;20208;-57
2022/04/26 12:23:46;;;;;;;3.20;1.88;;;;;;;25.39;35.97;98957.66;5029620;28;20200;-55
2022/04/26 12:26:14;;;;;;;5.10;2.35;;;;;;;25.47;36.12;98981.66;5029451;28;20242;-56
2022/04/26 12:28:52;;;;;;;7.18;1.80;;;;;;;25.32;35.05;98946.78;5029829;28;20198;-56
2022/04/26 12:31:25;;;;;;;10.25;2.25;;;;;;;25.48;36.60;98964.72;5029750;28;20215;-55
2022/04/26 12:34:12;;;;;;;5.00;2.08;;;;;;;25.46;36.43;98959.53;5029563;28;20203;-55
2022/04/26 12:36:58;;;;;;;4.30;1.80;;;;;;;25.58;36.42;98955.69;5029748;28;20204;-55
2022/04/26 12:39:27;;;;;;;6.85;2.45;;;;;;;25.51;36.87;98948.44;5029460;28;20233;-55
2022/04/26 12:41:56;;;;;;;6.88;2.45;;;;;;;25.51;37.31;98943.97;5029475;28;20201;-56
2022/04/26 12:44:24;;;;;;;4.53;2.10;;;;;;;25.40;37.16;98948.69;5029450;28;20201;-55
2022/04/26 12:52:38;;;;;;;6.68;2.53;;;;;;;25.43;38.07;98924.47;5029417;28;20716;-55
2022/04/26 12:55:06;;;;;;;4.70;2.30;;;;;;;25.31;38.58;98923.84;5028962;28;20231;-56
2022/04/26 12:57:46;;;;;;;7.20;2.38;;;;;;;25.39;38.20;98907.19;5029363;28;20210;-55
2022/04/26 13:00:14;;;;;;;5.03;2.28;;;;;;;25.50;35.75;98917.56;5028320;28;20223;-56
2022/04/26 13:02:41;;;;;;;7.13;2.67;;;;;;;25.38;36.41;98924.09;5028541;28;20247;-54
2022/04/26 13:05:10;;;;;;;6.55;2.67;;;;;;;25.28;37.61;98919.69;5028514;28;20685;-55
2022/04/26 13:07:37;;;;;;;8.20;2.80;;;;;;;25.29;37.58;98913.38;5028265;28;20733;-55
2022/04/26 13:10:04;;;;;;;4.57;2.58;;;;;;;25.28;36.96;98910.91;5028316;28;20317;-55
2022/04/26 13:12:31;;;;;;;2.88;2.60;;;;;;;25.27;37.67;98917.19;5027881;28;20231;-56
2022/04/26 13:14:59;;;;;;;4.93;2.70;;;;;;;25.36;37.30;98915.44;5028182;28;20272;-56
2022/04/26 13:17:26;;;;;;;6.60;2.58;;;;;;;25.30;37.38;98911.56;5028613;28;20730;-56
2022/04/26 13:19:54;;;;;;;4.65;2.72;;;;;;;25.22;37.38;98901.72;5027930;28;20275;-56
2022/04/26 13:22:23;;;;;;;5.43;2.90;;;;;;;25.33;37.73;98906.78;5028209;28;20222;-55
2022/04/26 13:24:51;;;;;;;2.38;2.17;;;;;;;25.38;36.71;98919.63;5027715;28;20233;-56
2022/04/26 13:27:19;;;;;;;5.82;2.42;;;;;;;25.33;36.59;98912.09;5043880;28;20239;-54
2022/04/26 13:29:48;;;;;;;7.38;2.25;;;;;;;25.33;36.14;98908.59;5048588;28;20581;-56
2022/04/26 13:32:17;;;;;;;6.97;2.08;;;;;;;25.33;36.40;98901.47;5048644;28;20204;-56
2022/04/26 13:34:44;;;;;;;4.85;2.17;;;;;;;25.34;36.84;98881.06;5048471;28;20289;-56
2022/04/26 13:37:12;;;;;;;3.92;2.40;;;;;;;25.60;36.27;98891.75;5048459;28;20196;-54
2022/04/26 13:39:40;;;;;;;4.03;2.40;;;;;;;25.67;36.42;98904.28;5048273;28;20203;-56
2022/04/26 13:42:09;;;;;;;6.93;2.33;;;;;;;25.81;36.30;98923.31;5048246;28;20203;-55
2022/04/26 13:44:36;;;;;;;3.92;2.20;;;;;;;25.71;35.33;98922.59;5048850;28;20200;-55
2022/04/26 13:47:04;;;;;;;9.10;2.60;;;;;;;25.65;35.04;98911.56;5048152;28;20203;-55
2022/04/26 13:49:31;;;;;;;5.65;2.17;;;;;;;25.60;34.49;98913.88;5048228;28;20734;-55
2022/04/26 13:51:58;;;;;;;3.28;2.22;;;;;;;25.46;35.24;98905.56;5048074;28;20204;-55
2022/04/26 13:54:27;;;;;;;5.47;2.88;;;;;;;25.31;35.64;98908.75;5048439;28;20199;-56
2022/04/26 13:56:56;;;;;;;5.38;2.60;;;;;;;25.19;36.04;98912.63;5048079;28;20192;-56
2022/04/26 13:59:23;;;;;;;7.63;2.80;;;;;;;25.13;36.64;98909.75;5048088;28;20203;-56
2022/04/26 14:01:50;;;;;;;10.23;2.80;;;;;;;25.19;36.79;98925.06;5047964;28;20573;-56
2022/04/26 14:04:18;;;;;;;11.55;2.45;;;;;;;25.17;36.12;98932.38;5048436;28;20746;-55
2022/04/26 14:06:44;;;;;;;5.80;2.55;;;;;;;25.19;36.53;98920.59;5048095;28;20257;-55
2022/04/26 14:09:12;;;;;;;5.90;2.47;;;;;;;25.28;36.22;98925.00;5047950;28;20196;-55
2022/04/26 14:11:39;;;;;;;5.75;2.22;;;;;;;25.21;36.21;98933.72;5047936;28;20677;-55
2022/04/26 14:22:21;;;;;;;5.53;2.72;;;;;;;24.93;37.65;98925.00;5047141;28;20301;-59
2022/04/26 14:24:52;;;;;;;6.20;2.42;;;;;;;24.80;37.75;98919.16;5045971;28;20233;-57
2022/04/26 14:27:20;;;;;;;2.75;2.50;;;;;;;24.70;38.30;98905.13;5048033;28;20284;-56
2022/04/26 14:29:48;;;;;;;10.27;2.55;;;;;;;24.52;38.59;98908.53;5047803;28;20193;-57
2022/04/26 14:32:15;;;;;;;4.75;2.53;;;;;;;24.50;38.90;98902.53;5047597;28;20205;-59
2022/04/26 14:34:42;;;;;;;5.30;2.95;;;;;;;24.52;39.12;98908.53;5047549;28;20192;-58
2022/04/26 14:37:10;;;;;;;8.00;2.85;;;;;;;24.64;39.18;98924.25;5045583;28;20288;-57
2022/04/26 14:39:37;;;;;;;8.15;3.08;;;;;;;24.51;39.40;98921.94;5047529;28;20204;-58
2022/04/26 14:42:05;;;;;;;5.45;2.75;;;;;;;24.52;39.94;98932.41;5047311;28;20235;-58
2022/04/26 14:44:32;;;;;;;3.88;2.60;;;;;;;24.43;40.05;98943.91;5047452;28;20250;-57
2022/04/26 14:47:01;;;;;;;7.65;3.50;;;;;;;24.30;40.67;98943.41;5047062;28;20216;-58
2022/04/26 14:49:29;;;;;;;5.50;2.85;;;;;;;24.20;41.22;98954.00;5047597;28;20268;-57
2022/04/26 14:51:55;;;;;;;6.53;2.90;;;;;;;24.10;41.46;98955.00;5047028;28;20679;-57
2022/04/26 14:54:23;;;;;;;7.13;3.40;;;;;;;23.89;42.27;98955.19;5047572;28;20196;-59
2022/04/26 14:56:50;;;;;;;6.47;2.92;;;;;;;23.72;42.97;98951.44;5047320;28;20312;-58
2022/04/26 14:59:18;;;;;;;7.90;3.33;;;;;;;23.67;42.94;98966.94;5047320;28;20199;-57
2022/04/26 15:01:46;;;;;;;5.57;2.85;;;;;;;23.56;43.12;98971.53;5047223;28;20635;-57
2022/04/26 15:04:15;;;;;;;11.82;3.08;;;;;;;23.38;43.62;98974.84;5046940;28;20201;-58
2022/04/26 15:06:42;;;;;;;4.13;3.15;;;;;;;23.30;44.33;98979.16;5047189;28;20211;-59
2022/04/26 15:16:37;;;;;;;8.00;3.40;;;;;;;23.04;47.45;98992.06;5046836;28;20598;-58
2022/04/26 15:17:25;;;;;;;6.07;2.83;;;;;;;22.65;48.19;99001.66;5041436;27;20321;-58
2022/04/26 15:19:54;;;;;;;7.57;3.53;;;;;;;22.50;51.29;99013.53;5042493;28;20225;-58
2022/04/26 15:22:21;;;;;;;5.63;3.55;;;;;;;22.41;54.46;99023.13;5046514;28;20252;-59
2022/04/26 15:24:48;;;;;;;6.82;3.45;;;;;;;22.25;54.69;99038.59;5045196;28;20240;-57
2022/04/26 15:27:16;;;;;;;6.90;3.55;;;;;;;22.05;59.46;99045.56;5039873;28;20223;-59
2022/04/26 15:29:43;;;;;;;9.95;4.10;;;;;;;21.94;62.69;99053.50;5036018;28;20713;-59
2022/04/26 15:32:13;;;;;;;7.15;3.53;;;;;;;21.64;62.31;99057.72;5036172;27;20224;-59
2022/04/26 15:34:40;;;;;;;7.07;3.75;;;;;;;21.29;67.74;99084.31;5045071;28;20231;-59
2022/04/26 15:37:09;;;;;;;11.10;3.70;;;;;;;20.76;74.47;99083.22;5040352;28;20221;-55
2022/04/26 15:39:36;;;;;;;13.82;4.88;;;;;;;20.29;87.25;99069.22;5025895;28;20727;-56
2022/04/26 15:42:03;;;;;;;6.03;4.47;;;;;;;20.24;87.90;99100.31;5025922;27;20312;-56
2022/04/26 15:44:30;;;;;;;8.88;4.38;;;;;;;19.90;89.29;99094.09;5026052;28;20237;-55
2022/04/26 15:46:58;;;;;;;7.10;4.78;;;;;;;19.67;96.00;99091.44;5038161;27;20729;-55
2022/04/26 15:49:26;;;;;;;5.40;4.90;;;;;;;19.54;96.20;99102.03;5048915;28;20200;-56
2022/04/26 15:51:54;;;;;;;9.38;5.78;;;;;;;19.51;100.00;99087.31;5049380;28;20197;-55
2022/04/26 15:54:22;;;;;;;7.68;4.95;;;;;;;19.48;100.00;99079.63;5043794;28;20575;-55